Floresville, Texas
Current Conditions -  °F | °C
As of 12:53 AM on Thursday 23 Oct 2014 (Local Time) from KSSF Reporting Station
Clear Clear  
Wind Chill: 72°   Ceiling: Unl
Heat Index: 72°   Visibility: 10mi
Dew Point: 61°   Wind: 5mph
Humidity: 68%   Direction: 130°SE
Pressure: 30.08"   Gusts: NA
Location:  29.13°N, 98.16°W
Report Text: KSSF 230553Z AUTO 13004KT 10SM CLR 22/16 A3008 RMK AO2 SLP175 T02220161 10267 20222 403000172 51007
Loading
Personal Weather Stations






























Interactive Weather Map
Tropical Storm Tracking
New forecast layout! Learn more

10-Day Weather Forecast

Advertisements
Track Severe Weather on mobile